METAR Data
IDs: Format: Raw Decoded Include TAF

Data at: 2113 UTC 18 Apr 2021

SAZN 182100Z 36006KT CAVOK 25/15 Q1010